Time;durP1;ratioP1;P1;durP2;ratioP2;P2;SDS_P1;SDS_P2;PMS_P1;PMS_P2;Temp;Humidity;BMP_temperature;BMP_pressure;BME280_temperature;BME280_humidity;BME280_pressure;Samples;Min_cycle;Max_cycle;Signal;HPM_P1;HPM_P2
2022/06/25 00:01:03;;;;;;;0.10;0.10;;;;;;;;;;5093098;28;20049;-81
2022/06/25 00:03:29;;;;;;;0.10;0.10;;;;;;;;;;5093317;28;20039;-82
2022/06/25 00:05:55;;;;;;;0.10;0.10;;;;;;;;;;5091424;28;20020;-83
2022/06/25 00:08:21;;;;;;;0.10;0.10;;;;;;;;;;5091504;28;20525;-82
2022/06/25 00:10:47;;;;;;;0.08;0.08;;;;;;;;;;5092560;28;20020;-82
2022/06/25 00:13:13;;;;;;;0.10;0.10;;;;;;;;;;5093265;28;20032;-81
2022/06/25 00:15:39;;;;;;;0.10;0.10;;;;;;;;;;5092412;28;20440;-82
2022/06/25 00:18:05;;;;;;;0.10;0.10;;;;;;;;;;5093420;28;20028;-81
2022/06/25 00:20:31;;;;;;;0.00;0.00;;;;;;;;;;5092132;28;20035;-82
2022/06/25 00:22:57;;;;;;;0.10;0.10;;;;;;;;;;5093097;28;20036;-81
2022/06/25 00:25:23;;;;;;;0.10;0.10;;;;;;;;;;5092687;28;20020;-81
2022/06/25 00:27:49;;;;;;;0.10;0.10;;;;;;;;;;5091231;28;20058;-81
2022/06/25 00:30:15;;;;;;;0.10;0.10;;;;;;;;;;5092555;28;20433;-81
2022/06/25 00:32:41;;;;;;;0.10;0.10;;;;;;;;;;5092198;28;20434;-82
2022/06/25 00:35:07;;;;;;;0.10;0.10;;;;;;;;;;5090925;28;20032;-81
2022/06/25 00:37:33;;;;;;;0.10;0.10;;;;;;;;;;5091151;28;20085;-81
2022/06/25 00:39:59;;;;;;;0.10;0.10;;;;;;;;;;5093013;28;20065;-82
2022/06/25 00:42:25;;;;;;;0.10;0.10;;;;;;;;;;5092318;28;20035;-82
2022/06/25 00:44:55;;;;;;;0.10;0.10;;;;;;;;;;5091871;28;20020;-82
2022/06/25 00:47:21;;;;;;;0.10;0.10;;;;;;;;;;5090907;28;20114;-82
2022/06/25 00:49:48;;;;;;;0.00;0.00;;;;;;;;;;5091956;28;20016;-82
2022/06/25 00:52:15;;;;;;;0.10;0.10;;;;;;;;;;5092040;28;20028;-82
2022/06/25 00:54:45;;;;;;;0.10;0.10;;;;;;;;;;5091913;28;20031;-82
2022/06/25 00:57:13;;;;;;;0.10;0.10;;;;;;;;;;5091996;28;20515;-82
2022/06/25 00:59:59;;;;;;;0.10;0.10;;;;;;;;;;5091712;28;20028;-83
2022/06/25 01:02:25;;;;;;;0.10;0.10;;;;;;;;;;5091854;28;20031;-82
2022/06/25 01:04:52;;;;;;;0.10;0.10;;;;;;;;;;5091676;28;20028;-82
2022/06/25 01:07:19;;;;;;;0.10;0.10;;;;;;;;;;5091862;28;20101;-81
2022/06/25 01:09:48;;;;;;;0.00;0.00;;;;;;;;;;5091576;28;20028;-82
2022/06/25 01:12:14;;;;;;;0.10;0.10;;;;;;;;;;5091776;28;20024;-83
2022/06/25 01:14:40;;;;;;;0.10;0.10;;;;;;;;;;5090032;28;20578;-82
2022/06/25 01:17:07;;;;;;;0.10;0.10;;;;;;;;;;5091615;28;20187;-83
2022/06/25 01:19:33;;;;;;;0.10;0.10;;;;;;;;;;5091617;28;20095;-81
2022/06/25 01:22:00;;;;;;;0.10;0.10;;;;;;;;;;5091960;28;20023;-82
2022/06/25 01:24:26;;;;;;;0.00;0.00;;;;;;;;;;5091626;28;20103;-82
2022/06/25 01:26:52;;;;;;;0.08;0.08;;;;;;;;;;5091358;28;20081;-82
2022/06/25 01:29:18;;;;;;;0.10;0.10;;;;;;;;;;5091445;28;20474;-83
2022/06/25 01:31:44;;;;;;;0.10;0.10;;;;;;;;;;5091298;28;20038;-82
2022/06/25 01:34:11;;;;;;;0.10;0.10;;;;;;;;;;5090261;28;20077;-83
2022/06/25 01:36:37;;;;;;;0.10;0.10;;;;;;;;;;5091157;28;20036;-82
2022/06/25 01:39:03;;;;;;;0.10;0.10;;;;;;;;;;5091234;28;20065;-83
2022/06/25 01:41:30;;;;;;;0.10;0.10;;;;;;;;;;5091663;28;20051;-83
2022/06/25 01:43:55;;;;;;;0.10;0.10;;;;;;;;;;5091104;28;20028;-82
2022/06/25 01:46:21;;;;;;;0.10;0.10;;;;;;;;;;5091260;28;20045;-83
2022/06/25 01:48:48;;;;;;;0.10;0.10;;;;;;;;;;5091533;28;20379;-83
2022/06/25 01:51:16;;;;;;;0.10;0.10;;;;;;;;;;5091252;28;20039;-82
2022/06/25 01:53:42;;;;;;;0.10;0.10;;;;;;;;;;5090963;28;20021;-82
2022/06/25 01:56:08;;;;;;;0.10;0.10;;;;;;;;;;5091381;28;20036;-82
2022/06/25 01:58:34;;;;;;;0.10;0.10;;;;;;;;;;5091457;28;20100;-81
2022/06/25 02:01:00;;;;;;;0.10;0.10;;;;;;;;;;5091557;28;20407;-82
2022/06/25 02:03:26;;;;;;;0.10;0.10;;;;;;;;;;5091008;28;20031;-83
2022/06/25 02:05:58;;;;;;;0.10;0.10;;;;;;;;;;5090914;28;20109;-82
2022/06/25 02:08:26;;;;;;;0.10;0.10;;;;;;;;;;5091280;28;20133;-82
2022/06/25 02:10:52;;;;;;;0.10;0.10;;;;;;;;;;5091178;28;20032;-82
2022/06/25 02:13:18;;;;;;;0.10;0.10;;;;;;;;;;5089687;28;20020;-81
2022/06/25 02:15:44;;;;;;;0.10;0.10;;;;;;;;;;5091213;28;20478;-81
2022/06/25 02:18:10;;;;;;;0.10;0.10;;;;;;;;;;5091066;28;20035;-82
2022/06/25 02:20:37;;;;;;;0.10;0.10;;;;;;;;;;5090840;28;20051;-81
2022/06/25 02:23:03;;;;;;;0.10;0.10;;;;;;;;;;5091163;28;20020;-81
2022/06/25 02:25:29;;;;;;;0.10;0.10;;;;;;;;;;5091318;28;20020;-81
2022/06/25 02:27:55;;;;;;;0.10;0.10;;;;;;;;;;5090930;28;20062;-81
2022/06/25 02:30:22;;;;;;;0.10;0.10;;;;;;;;;;5090806;28;20471;-81
2022/06/25 02:32:48;;;;;;;0.10;0.10;;;;;;;;;;5090683;28;20028;-82
2022/06/25 02:35:14;;;;;;;0.10;0.10;;;;;;;;;;5090757;28;20058;-82
2022/06/25 02:37:40;;;;;;;0.10;0.10;;;;;;;;;;5090485;28;20492;-82
2022/06/25 02:40:06;;;;;;;0.10;0.10;;;;;;;;;;5090920;28;20030;-82
2022/06/25 02:42:36;;;;;;;0.10;0.10;;;;;;;;;;5090474;28;20028;-81
2022/06/25 02:45:02;;;;;;;0.10;0.10;;;;;;;;;;5090875;28;20035;-82
2022/06/25 02:47:28;;;;;;;0.10;0.10;;;;;;;;;;5091178;28;20024;-81
2022/06/25 02:49:54;;;;;;;0.10;0.10;;;;;;;;;;5091002;28;20028;-82
2022/06/25 02:52:20;;;;;;;0.10;0.10;;;;;;;;;;5090645;28;20032;-82
2022/06/25 02:54:46;;;;;;;0.10;0.10;;;;;;;;;;5090685;28;20356;-81
2022/06/25 02:59:57;;;;;;;0.10;0.10;;;;;;;;;;5092417;28;20051;-81
2022/06/25 03:02:23;;;;;;;0.10;0.10;;;;;;;;;;5094360;28;20036;-81
2022/06/25 03:04:49;;;;;;;0.10;0.10;;;;;;;;;;5092607;28;20028;-81
2022/06/25 03:07:15;;;;;;;0.10;0.10;;;;;;;;;;5094149;28;20032;-81
2022/06/25 03:09:41;;;;;;;0.03;0.03;;;;;;;;;;5093970;28;20433;-82
2022/06/25 03:12:07;;;;;;;0.10;0.10;;;;;;;;;;5094143;28;20028;-83
2022/06/25 03:14:33;;;;;;;0.10;0.10;;;;;;;;;;5093939;28;20101;-82
2022/06/25 03:16:59;;;;;;;0.10;0.10;;;;;;;;;;5094522;28;20032;-81
2022/06/25 03:19:25;;;;;;;0.10;0.10;;;;;;;;;;5093883;28;20023;-81
2022/06/25 03:21:51;;;;;;;0.10;0.10;;;;;;;;;;5093738;28;20024;-81
2022/06/25 03:24:17;;;;;;;0.10;0.10;;;;;;;;;;5093740;28;20034;-81
2022/06/25 03:26:43;;;;;;;0.10;0.10;;;;;;;;;;5112036;28;20051;-82
2022/06/25 03:29:09;;;;;;;0.10;0.10;;;;;;;;;;5114126;28;20082;-81
2022/06/25 03:31:35;;;;;;;0.13;0.13;;;;;;;;;;5112443;28;20088;-81
2022/06/25 03:34:02;;;;;;;0.00;0.00;;;;;;;;;;5114322;28;20041;-82
2022/06/25 03:36:28;;;;;;;0.10;0.10;;;;;;;;;;5113917;28;20470;-82
2022/06/25 03:38:54;;;;;;;0.10;0.10;;;;;;;;;;5113778;28;20025;-84
2022/06/25 03:41:38;;;;;;;0.10;0.10;;;;;;;;;;5112527;28;20118;-81
2022/06/25 03:44:06;;;;;;;0.10;0.10;;;;;;;;;;5113866;28;20028;-81
2022/06/25 03:46:33;;;;;;;0.10;0.10;;;;;;;;;;5112692;28;20031;-81
2022/06/25 03:48:59;;;;;;;0.10;0.10;;;;;;;;;;5114014;28;20076;-81
2022/06/25 03:51:25;;;;;;;0.05;0.05;;;;;;;;;;5113239;28;20027;-80
2022/06/25 03:53:51;;;;;;;0.10;0.10;;;;;;;;;;5113598;28;20425;-81
2022/06/25 03:56:17;;;;;;;0.10;0.10;;;;;;;;;;5113529;28;20039;-80
2022/06/25 03:58:43;;;;;;;0.10;0.10;;;;;;;;;;5113105;28;20475;-82
2022/06/25 04:01:09;;;;;;;0.10;0.10;;;;;;;;;;5112102;28;20467;-82
2022/06/25 04:03:35;;;;;;;0.10;0.10;;;;;;;;;;5113060;28;20429;-82
2022/06/25 04:06:02;;;;;;;0.10;0.10;;;;;;;;;;5112294;28;20024;-82
2022/06/25 04:08:28;;;;;;;0.08;0.08;;;;;;;;;;5112968;28;20027;-81
2022/06/25 04:10:54;;;;;;;0.10;0.10;;;;;;;;;;5111787;28;20027;-81
2022/06/25 04:13:20;;;;;;;0.10;0.10;;;;;;;;;;5113105;28;20027;-82
2022/06/25 04:15:46;;;;;;;0.10;0.10;;;;;;;;;;5113177;28;20042;-82
2022/06/25 04:18:12;;;;;;;0.10;0.10;;;;;;;;;;5113095;28;20024;-82
2022/06/25 04:20:39;;;;;;;0.10;0.10;;;;;;;;;;5111392;28;20028;-82
2022/06/25 04:23:05;;;;;;;0.10;0.10;;;;;;;;;;5111718;28;20016;-82
2022/06/25 04:25:31;;;;;;;0.10;0.10;;;;;;;;;;5113249;28;20084;-82
2022/06/25 04:30:42;;;;;;;0.10;0.10;;;;;;;;;;5112809;28;20066;-82
2022/06/25 04:33:08;;;;;;;0.10;0.10;;;;;;;;;;5112737;28;20047;-82
2022/06/25 04:35:34;;;;;;;0.10;0.10;;;;;;;;;;5111106;28;20403;-82
2022/06/25 04:38:01;;;;;;;0.10;0.10;;;;;;;;;;5112872;28;20059;-82
2022/06/25 04:40:29;;;;;;;0.10;0.10;;;;;;;;;;5112359;28;20391;-82
2022/06/25 04:42:55;;;;;;;0.10;0.10;;;;;;;;;;5113264;28;20058;-82
2022/06/25 04:45:21;;;;;;;0.10;0.10;;;;;;;;;;5112823;28;20024;-82
2022/06/25 04:47:47;;;;;;;0.10;0.10;;;;;;;;;;5112959;28;20054;-82
2022/06/25 04:50:13;;;;;;;0.10;0.10;;;;;;;;;;5113149;28;20490;-82
2022/06/25 04:52:39;;;;;;;0.10;0.10;;;;;;;;;;5111413;28;20027;-82
2022/06/25 04:55:05;;;;;;;0.10;0.10;;;;;;;;;;5112418;28;20022;-82
2022/06/25 04:57:31;;;;;;;0.10;0.10;;;;;;;;;;5112241;28;20040;-82
2022/06/25 04:59:57;;;;;;;0.10;0.10;;;;;;;;;;5110939;28;20019;-82
2022/06/25 05:02:23;;;;;;;0.10;0.10;;;;;;;;;;5110640;28;20027;-81
2022/06/25 05:04:49;;;;;;;0.10;0.10;;;;;;;;;;5112447;28;20023;-81
2022/06/25 05:07:15;;;;;;;0.10;0.10;;;;;;;;;;5112586;28;20391;-81
2022/06/25 05:09:42;;;;;;;0.10;0.10;;;;;;;;;;5111722;28;20033;-82
2022/06/25 05:12:08;;;;;;;0.00;0.00;;;;;;;;;;5112254;28;20364;-80
2022/06/25 05:14:34;;;;;;;0.10;0.10;;;;;;;;;;5112091;28;20023;-81
2022/06/25 05:17:00;;;;;;;0.10;0.10;;;;;;;;;;5112390;28;20081;-81
2022/06/25 05:19:26;;;;;;;0.10;0.10;;;;;;;;;;5111940;28;20046;-81
2022/06/25 05:21:52;;;;;;;0.10;0.10;;;;;;;;;;5111628;28;20108;-82
2022/06/25 05:24:18;;;;;;;0.10;0.10;;;;;;;;;;5111857;28;20062;-82
2022/06/25 05:26:44;;;;;;;0.10;0.10;;;;;;;;;;5111588;28;20059;-82
2022/06/25 05:29:10;;;;;;;0.10;0.10;;;;;;;;;;5110576;28;20020;-81
2022/06/25 05:31:36;;;;;;;0.10;0.10;;;;;;;;;;5111531;28;20023;-80
2022/06/25 05:34:02;;;;;;;0.10;0.10;;;;;;;;;;5112029;28;20020;-81
2022/06/25 05:36:28;;;;;;;0.10;0.10;;;;;;;;;;5111408;28;20085;-81
2022/06/25 05:38:54;;;;;;;0.10;0.10;;;;;;;;;;5111652;28;20027;-81
2022/06/25 05:41:20;;;;;;;0.10;0.10;;;;;;;;;;5111683;28;20111;-79
2022/06/25 05:43:46;;;;;;;0.10;0.10;;;;;;;;;;5111643;28;20106;-80
2022/06/25 05:46:12;;;;;;;0.10;0.10;;;;;;;;;;5111547;28;20016;-80
2022/06/25 05:48:41;;;;;;;0.10;0.10;;;;;;;;;;5109935;28;20047;-82
2022/06/25 05:51:08;;;;;;;0.10;0.10;;;;;;;;;;5101691;28;20028;-81
2022/06/25 05:53:35;;;;;;;0.10;0.10;;;;;;;;;;5091054;28;20051;-81
2022/06/25 05:56:01;;;;;;;0.00;0.00;;;;;;;;;;5092190;28;20455;-83
2022/06/25 05:58:27;;;;;;;0.10;0.10;;;;;;;;;;5089298;28;20385;-83
2022/06/25 06:00:53;;;;;;;0.10;0.10;;;;;;;;;;5091193;28;20020;-82
2022/06/25 06:03:19;;;;;;;0.10;0.10;;;;;;;;;;5091215;28;20024;-83
2022/06/25 06:05:45;;;;;;;0.03;0.03;;;;;;;;;;5101927;28;20527;-81
2022/06/25 06:08:10;;;;;;;0.10;0.10;;;;;;;;;;5089538;28;20031;-84
2022/06/25 06:10:36;;;;;;;0.10;0.10;;;;;;;;;;5090928;28;20111;-82
2022/06/25 06:13:03;;;;;;;0.10;0.10;;;;;;;;;;5091263;28;20044;-83
2022/06/25 06:15:29;;;;;;;0.10;0.10;;;;;;;;;;5090571;28;20028;-82
2022/06/25 06:17:55;;;;;;;0.10;0.10;;;;;;;;;;5096236;28;20026;-82
2022/06/25 06:20:21;;;;;;;0.10;0.10;;;;;;;;;;5111074;28;20035;-80
2022/06/25 06:22:47;;;;;;;0.10;0.10;;;;;;;;;;5111700;28;20023;-82
2022/06/25 06:25:13;;;;;;;0.10;0.10;;;;;;;;;;5110058;28;20034;-82
2022/06/25 06:27:39;;;;;;;0.10;0.10;;;;;;;;;;5091889;28;20021;-82
2022/06/25 06:30:08;;;;;;;0.10;0.10;;;;;;;;;;5111463;28;20041;-84
2022/06/25 06:32:34;;;;;;;0.10;0.10;;;;;;;;;;5111366;28;20027;-83
2022/06/25 06:35:00;;;;;;;0.10;0.10;;;;;;;;;;5112782;28;20510;-84
2022/06/25 06:37:26;;;;;;;0.10;0.10;;;;;;;;;;5114707;28;20031;-82
2022/06/25 06:39:52;;;;;;;0.10;0.10;;;;;;;;;;5104585;28;20111;-83
2022/06/25 06:42:18;;;;;;;0.10;0.10;;;;;;;;;;5096499;28;20023;-83
2022/06/25 06:44:45;;;;;;;0.00;0.00;;;;;;;;;;5094102;28;20028;-85
2022/06/25 06:47:11;;;;;;;0.10;0.10;;;;;;;;;;5086702;28;20024;-88
2022/06/25 06:49:38;;;;;;;0.10;0.10;;;;;;;;;;5090733;28;20468;-83
2022/06/25 06:52:04;;;;;;;0.00;0.00;;;;;;;;;;5093647;28;20048;-88
2022/06/25 06:54:30;;;;;;;0.10;0.10;;;;;;;;;;5093334;28;20028;-82
2022/06/25 06:56:56;;;;;;;0.10;0.10;;;;;;;;;;5092698;28;20039;-82
2022/06/25 06:59:22;;;;;;;0.10;0.10;;;;;;;;;;5093936;28;20029;-82
2022/06/25 07:01:48;;;;;;;0.10;0.10;;;;;;;;;;5094181;28;20124;-85
2022/06/25 07:04:14;;;;;;;0.10;0.10;;;;;;;;;;5098580;28;20132;-87
2022/06/25 07:06:40;;;;;;;0.10;0.10;;;;;;;;;;5093304;28;20024;-85
2022/06/25 07:09:06;;;;;;;0.10;0.10;;;;;;;;;;5113175;28;20524;-84
2022/06/25 07:11:32;;;;;;;0.10;0.10;;;;;;;;;;5112167;28;20028;-84
2022/06/25 07:14:06;;;;;;;0.10;0.10;;;;;;;;;;5092586;28;20181;-85
2022/06/25 07:16:33;;;;;;;0.10;0.10;;;;;;;;;;5093920;28;20035;-84
2022/06/25 07:19:00;;;;;;;0.10;0.10;;;;;;;;;;5093591;28;20024;-84
2022/06/25 07:21:26;;;;;;;0.10;0.10;;;;;;;;;;5093993;28;20103;-84
2022/06/25 07:23:53;;;;;;;0.10;0.10;;;;;;;;;;5094415;28;20099;-83
2022/06/25 07:26:19;;;;;;;0.10;0.10;;;;;;;;;;5094263;28;20455;-86
2022/06/25 07:28:45;;;;;;;0.10;0.10;;;;;;;;;;5093889;28;20023;-86
2022/06/25 07:31:11;;;;;;;0.10;0.10;;;;;;;;;;5094074;28;20103;-88
2022/06/25 07:33:37;;;;;;;0.10;0.10;;;;;;;;;;5092222;28;20032;-83
2022/06/25 07:36:03;;;;;;;0.10;0.10;;;;;;;;;;5093345;28;20105;-86
2022/06/25 07:38:30;;;;;;;0.10;0.10;;;;;;;;;;5102035;28;20042;-84
2022/06/25 07:40:56;;;;;;;0.00;0.00;;;;;;;;;;5112282;28;20035;-83
2022/06/25 07:43:22;;;;;;;0.10;0.10;;;;;;;;;;5113622;28;20027;-83
2022/06/25 07:45:48;;;;;;;0.10;0.10;;;;;;;;;;5113303;28;20490;-84
2022/06/25 07:48:14;;;;;;;0.10;0.10;;;;;;;;;;5112631;28;20368;-83
2022/06/25 07:53:25;;;;;;;0.10;0.10;;;;;;;;;;5113521;28;20030;-84
2022/06/25 07:55:52;;;;;;;0.10;0.10;;;;;;;;;;5113614;28;20479;-83
2022/06/25 07:58:18;;;;;;;0.10;0.10;;;;;;;;;;5113581;28;20106;-83
2022/06/25 08:00:44;;;;;;;0.10;0.10;;;;;;;;;;5113267;28;20489;-86
2022/06/25 08:03:10;;;;;;;0.10;0.10;;;;;;;;;;5112201;28;20122;-83
2022/06/25 08:05:36;;;;;;;0.10;0.10;;;;;;;;;;5113427;28;20046;-84
2022/06/25 08:08:02;;;;;;;0.10;0.10;;;;;;;;;;5113454;28;20454;-83
2022/06/25 08:10:28;;;;;;;0.10;0.10;;;;;;;;;;5113331;28;20020;-83
2022/06/25 08:12:54;;;;;;;0.10;0.10;;;;;;;;;;5112048;28;20023;-83
2022/06/25 08:15:20;;;;;;;0.00;0.00;;;;;;;;;;5113338;27;20020;-83
2022/06/25 08:17:46;;;;;;;0.10;0.10;;;;;;;;;;5111928;28;20123;-83
2022/06/25 08:20:13;;;;;;;0.10;0.10;;;;;;;;;;5113232;28;20016;-85
2022/06/25 08:22:39;;;;;;;0.10;0.10;;;;;;;;;;5113089;28;20024;-84
2022/06/25 08:25:07;;;;;;;0.10;0.10;;;;;;;;;;5113363;28;20020;-84
2022/06/25 08:27:33;;;;;;;0.10;0.10;;;;;;;;;;5112800;28;20031;-83
2022/06/25 08:29:59;;;;;;;0.00;0.00;;;;;;;;;;5113018;28;20023;-83
2022/06/25 08:32:25;;;;;;;0.10;0.10;;;;;;;;;;5112889;28;20106;-86
2022/06/25 08:34:51;;;;;;;0.10;0.10;;;;;;;;;;5111429;28;20118;-82
2022/06/25 08:37:17;;;;;;;0.10;0.10;;;;;;;;;;5105295;28;20653;-83
2022/06/25 08:39:43;;;;;;;0.10;0.10;;;;;;;;;;5096907;28;20024;-83
2022/06/25 08:42:10;;;;;;;0.10;0.10;;;;;;;;;;5092855;28;20023;-82
2022/06/25 08:44:36;;;;;;;2.65;2.40;;;;;;;;;;5091222;28;20020;-82
2022/06/25 08:47:02;;;;;;;0.10;0.10;;;;;;;;;;5092252;28;20055;-82
2022/06/25 08:49:32;;;;;;;0.10;0.10;;;;;;;;;;5090352;28;20038;-83
2022/06/25 08:52:01;;;;;;;0.10;0.10;;;;;;;;;;5083232;28;20028;-84
2022/06/25 08:54:27;;;;;;;0.10;0.10;;;;;;;;;;5089698;28;20020;-84
2022/06/25 08:56:55;;;;;;;0.00;0.00;;;;;;;;;;5089721;28;20036;-85
2022/06/25 08:59:21;;;;;;;0.10;0.10;;;;;;;;;;5089960;28;20053;-86
2022/06/25 09:01:47;;;;;;;0.10;0.10;;;;;;;;;;5087070;28;20026;-85
2022/06/25 09:04:13;;;;;;;0.10;0.10;;;;;;;;;;5089430;28;20020;-85
2022/06/25 09:06:40;;;;;;;0.10;0.10;;;;;;;;;;5076141;28;20128;-85
2022/06/25 09:09:09;;;;;;;0.10;0.10;;;;;;;;;;5082837;28;20055;-82
2022/06/25 09:11:47;;;;;;;0.10;0.10;;;;;;;;;;5091234;28;20024;-83
2022/06/25 09:14:24;;;;;;;0.05;0.05;;;;;;;;;;5085586;28;20024;-83
2022/06/25 09:17:12;;;;;;;0.10;0.10;;;;;;;;;;5088965;28;20036;-82
2022/06/25 09:19:40;;;;;;;0.10;0.10;;;;;;;;;;5074789;28;20017;-80
2022/06/25 09:22:08;;;;;;;0.10;0.10;;;;;;;;;;5086859;28;20392;-82
2022/06/25 09:24:40;;;;;;;0.10;0.10;;;;;;;;;;5077781;28;20472;-81
2022/06/25 09:27:06;;;;;;;0.10;0.10;;;;;;;;;;5086959;28;20373;-82
2022/06/25 09:29:38;;;;;;;0.05;0.05;;;;;;;;;;5088564;28;20161;-82
2022/06/25 09:32:04;;;;;;;0.10;0.10;;;;;;;;;;5079609;28;20411;-87
2022/06/25 09:34:34;;;;;;;0.10;0.10;;;;;;;;;;5090786;28;20062;-83
2022/06/25 09:37:19;;;;;;;0.10;0.10;;;;;;;;;;5078713;28;20036;-82
2022/06/25 09:39:49;;;;;;;0.10;0.10;;;;;;;;;;5071601;28;20138;-84
2022/06/25 09:42:28;;;;;;;0.10;0.10;;;;;;;;;;5089073;28;20020;-85
2022/06/25 09:44:59;;;;;;;0.10;0.10;;;;;;;;;;5089438;28;20024;-86
2022/06/25 09:47:25;;;;;;;0.10;0.10;;;;;;;;;;5074710;28;20075;-81
2022/06/25 09:50:02;;;;;;;0.10;0.10;;;;;;;;;;5087373;28;20398;-80
2022/06/25 09:52:28;;;;;;;0.10;0.10;;;;;;;;;;5070539;28;20025;-84
2022/06/25 09:54:54;;;;;;;0.00;0.00;;;;;;;;;;5081964;28;20024;-87
2022/06/25 09:57:20;;;;;;;0.10;0.10;;;;;;;;;;5090875;28;20487;-84
2022/06/25 09:59:50;;;;;;;0.10;0.10;;;;;;;;;;5073874;28;20035;-85
2022/06/25 10:02:17;;;;;;;0.10;0.10;;;;;;;;;;5084888;28;20047;-86
2022/06/25 10:04:44;;;;;;;0.10;0.10;;;;;;;;;;5080161;28;20135;-88
2022/06/25 10:07:11;;;;;;;0.10;0.10;;;;;;;;;;5091209;28;20042;-89
2022/06/25 10:09:39;;;;;;;0.10;0.10;;;;;;;;;;5077223;28;20112;-88
2022/06/25 10:12:05;;;;;;;0.10;0.10;;;;;;;;;;5090564;28;20013;-88
2022/06/25 10:14:34;;;;;;;0.10;0.10;;;;;;;;;;5081667;28;20028;-88
2022/06/25 10:17:01;;;;;;;0.10;0.10;;;;;;;;;;5082730;28;20075;-86
2022/06/25 10:19:29;;;;;;;0.10;0.10;;;;;;;;;;5073497;28;20572;-86
2022/06/25 10:21:55;;;;;;;0.08;0.08;;;;;;;;;;5091114;28;20023;-87
2022/06/25 10:24:21;;;;;;;0.10;0.10;;;;;;;;;;5081426;28;20028;-87
2022/06/25 10:26:47;;;;;;;0.10;0.10;;;;;;;;;;5084352;28;20081;-89
2022/06/25 10:29:26;;;;;;;0.10;0.10;;;;;;;;;;5087794;28;20035;-83
2022/06/25 10:32:11;;;;;;;0.10;0.10;;;;;;;;;;5077469;28;20024;-83
2022/06/25 10:34:37;;;;;;;0.08;0.08;;;;;;;;;;5083747;28;20029;-82
2022/06/25 10:37:04;;;;;;;0.00;0.00;;;;;;;;;;5086365;28;20032;-85
2022/06/25 10:39:30;;;;;;;0.10;0.10;;;;;;;;;;5077487;28;20085;-85
2022/06/25 10:45:16;;;;;;;0.00;0.00;;;;;;;;;;5085658;28;20565;-85
2022/06/25 10:47:42;;;;;;;0.10;0.10;;;;;;;;;;5071522;28;20110;-85
2022/06/25 10:50:21;;;;;;;0.10;0.10;;;;;;;;;;5088100;28;20016;-84
2022/06/25 10:53:05;;;;;;;0.10;0.10;;;;;;;;;;5082539;28;20028;-84
2022/06/25 10:55:54;;;;;;;0.10;0.10;;;;;;;;;;5075766;28;20036;-85
2022/06/25 10:58:22;;;;;;;0.10;0.10;;;;;;;;;;5074742;28;20052;-84
2022/06/25 11:00:51;;;;;;;0.10;0.10;;;;;;;;;;5094572;28;20098;-82
2022/06/25 11:03:18;;;;;;;0.10;0.10;;;;;;;;;;5091994;28;20483;-86
2022/06/25 11:05:48;;;;;;;0.10;0.10;;;;;;;;;;5093206;28;20091;-85
2022/06/25 11:08:14;;;;;;;0.10;0.10;;;;;;;;;;5093268;28;20472;-85
2022/06/25 11:10:40;;;;;;;0.10;0.10;;;;;;;;;;5093280;28;20024;-84
2022/06/25 11:13:07;;;;;;;0.10;0.10;;;;;;;;;;5093535;28;20464;-84
2022/06/25 11:15:39;;;;;;;0.10;0.10;;;;;;;;;;5077137;28;20476;-85
2022/06/25 11:18:13;;;;;;;0.10;0.10;;;;;;;;;;5078332;28;20028;-87
2022/06/25 11:20:39;;;;;;;0.00;0.00;;;;;;;;;;5092572;28;20024;-87
2022/06/25 11:23:06;;;;;;;0.10;0.10;;;;;;;;;;5091736;28;20522;-83
2022/06/25 11:28:48;;;;;;;0.10;0.10;;;;;;;;;;5080933;28;20086;-83
2022/06/25 11:31:24;;;;;;;0.10;0.10;;;;;;;;;;5091930;28;20548;-84
2022/06/25 11:33:52;;;;;;;0.10;0.10;;;;;;;;;;5090643;28;20499;-87
2022/06/25 11:36:19;;;;;;;0.10;0.10;;;;;;;;;;5088609;28;20035;-86
2022/06/25 11:38:52;;;;;;;0.10;0.10;;;;;;;;;;5095938;27;20031;-84
2022/06/25 11:41:22;;;;;;;0.03;0.03;;;;;;;;;;5093223;28;20039;-85
2022/06/25 11:43:48;;;;;;;0.10;0.10;;;;;;;;;;5091112;28;20510;-82
2022/06/25 11:46:18;;;;;;;0.10;0.10;;;;;;;;;;5092044;28;20052;-80
2022/06/25 11:48:44;;;;;;;0.10;0.10;;;;;;;;;;5087642;28;20107;-81
2022/06/25 11:51:10;;;;;;;0.10;0.10;;;;;;;;;;5093084;28;20095;-80
2022/06/25 11:53:37;;;;;;;0.10;0.10;;;;;;;;;;5075707;28;20048;-82
2022/06/25 11:56:04;;;;;;;0.10;0.10;;;;;;;;;;5088588;28;20036;-80
2022/06/25 11:58:31;;;;;;;0.10;0.10;;;;;;;;;;5080358;28;20487;-80
2022/06/25 12:00:58;;;;;;;0.10;0.10;;;;;;;;;;5081102;28;20029;-82
2022/06/25 12:03:25;;;;;;;0.10;0.10;;;;;;;;;;5088115;28;20028;-81
2022/06/25 12:05:54;;;;;;;0.10;0.10;;;;;;;;;;5073535;28;20028;-82
2022/06/25 12:08:21;;;;;;;0.10;0.10;;;;;;;;;;5078881;28;20035;-82
2022/06/25 12:10:48;;;;;;;0.10;0.10;;;;;;;;;;5082362;28;20020;-81
2022/06/25 12:13:17;;;;;;;0.10;0.10;;;;;;;;;;5086699;28;20024;-80
2022/06/25 12:15:44;;;;;;;0.10;0.10;;;;;;;;;;5075698;28;20012;-82
2022/06/25 12:18:10;;;;;;;0.10;0.10;;;;;;;;;;5087743;28;20047;-82
2022/06/25 12:20:52;;;;;;;0.10;0.10;;;;;;;;;;5079283;28;20024;-82
2022/06/25 12:23:18;;;;;;;0.10;0.10;;;;;;;;;;5077484;28;20496;-81
2022/06/25 12:25:44;;;;;;;0.10;0.10;;;;;;;;;;5088618;28;20024;-82
2022/06/25 12:28:10;;;;;;;0.10;0.10;;;;;;;;;;5077529;28;20020;-82
2022/06/25 12:30:36;;;;;;;0.10;0.10;;;;;;;;;;5082933;28;20442;-82
2022/06/25 12:33:09;;;;;;;0.10;0.10;;;;;;;;;;5083949;28;20399;-82
2022/06/25 12:35:39;;;;;;;3.30;3.10;;;;;;;;;;5074591;28;20115;-82
2022/06/25 12:38:09;;;;;;;0.10;0.10;;;;;;;;;;5087472;28;20395;-82
2022/06/25 12:40:45;;;;;;;0.10;0.10;;;;;;;;;;5079842;28;20064;-83
2022/06/25 12:43:13;;;;;;;0.10;0.10;;;;;;;;;;5078513;28;20024;-86
2022/06/25 12:45:40;;;;;;;0.10;0.10;;;;;;;;;;5086891;28;20075;-83
2022/06/25 12:48:09;;;;;;;0.10;0.10;;;;;;;;;;5076299;28;20106;-83
2022/06/25 12:50:36;;;;;;;0.10;0.10;;;;;;;;;;5083033;28;20135;-80
2022/06/25 12:53:09;;;;;;;0.10;0.10;;;;;;;;;;5083657;28;20384;-80
2022/06/25 12:55:36;;;;;;;0.10;0.10;;;;;;;;;;5074824;28;20436;-80
2022/06/25 12:58:04;;;;;;;0.10;0.10;;;;;;;;;;5087387;28;20035;-80
2022/06/25 13:00:32;;;;;;;0.10;0.10;;;;;;;;;;5078689;28;20028;-83
2022/06/25 13:02:58;;;;;;;0.10;0.10;;;;;;;;;;5079609;28;20056;-80
2022/06/25 13:05:24;;;;;;;0.13;0.13;;;;;;;;;;5086192;28;20392;-80
2022/06/25 13:07:50;;;;;;;0.10;0.10;;;;;;;;;;5074423;28;20079;-81
2022/06/25 13:10:16;;;;;;;0.10;0.10;;;;;;;;;;5085263;28;20028;-79
2022/06/25 13:12:43;;;;;;;0.10;0.10;;;;;;;;;;5080821;28;20412;-82
2022/06/25 13:15:09;;;;;;;0.10;0.10;;;;;;;;;;5077934;28;20032;-84
2022/06/25 13:17:35;;;;;;;0.10;0.10;;;;;;;;;;5087303;28;20043;-82
2022/06/25 13:20:02;;;;;;;0.10;0.10;;;;;;;;;;5074799;28;20133;-80
2022/06/25 13:22:28;;;;;;;0.10;0.10;;;;;;;;;;5083134;28;20051;-79
2022/06/25 13:24:54;;;;;;;0.10;0.10;;;;;;;;;;5082068;28;20024;-82
2022/06/25 13:27:20;;;;;;;0.10;0.10;;;;;;;;;;5074901;28;20107;-80
2022/06/25 13:29:46;;;;;;;0.10;0.10;;;;;;;;;;5088638;28;20028;-77
2022/06/25 13:32:17;;;;;;;0.10;0.10;;;;;;;;;;5091187;28;20062;-79
2022/06/25 13:34:48;;;;;;;0.10;0.10;;;;;;;;;;5090625;28;20031;-79
2022/06/25 13:37:17;;;;;;;0.10;0.10;;;;;;;;;;5077023;28;20131;-80
2022/06/25 13:39:43;;;;;;;0.00;0.00;;;;;;;;;;5087346;28;20028;-81
2022/06/25 13:42:09;;;;;;;0.10;0.10;;;;;;;;;;5075659;28;20027;-79
2022/06/25 13:44:35;;;;;;;0.10;0.10;;;;;;;;;;5081452;28;20090;-79
2022/06/25 13:47:02;;;;;;;0.10;0.10;;;;;;;;;;5074784;28;20025;-78
2022/06/25 13:49:28;;;;;;;0.10;0.10;;;;;;;;;;5086530;28;20020;-81
2022/06/25 13:51:54;;;;;;;0.10;0.10;;;;;;;;;;5087656;28;20118;-80
2022/06/25 13:54:20;;;;;;;0.10;0.10;;;;;;;;;;5076921;28;20586;-80
2022/06/25 13:56:46;;;;;;;0.10;0.10;;;;;;;;;;5088616;28;20032;-78
2022/06/25 13:59:12;;;;;;;0.00;0.00;;;;;;;;;;5090984;28;20036;-79
2022/06/25 14:01:39;;;;;;;0.10;0.10;;;;;;;;;;5101738;28;20104;-79
2022/06/25 14:04:05;;;;;;;0.10;0.10;;;;;;;;;;5089203;28;20032;-81
2022/06/25 14:06:35;;;;;;;0.10;0.10;;;;;;;;;;5090051;28;20024;-81
2022/06/25 14:09:01;;;;;;;0.10;0.10;;;;;;;;;;5102002;28;20028;-80
2022/06/25 14:11:27;;;;;;;0.10;0.10;;;;;;;;;;5098693;28;20107;-80
2022/06/25 14:13:53;;;;;;;0.10;0.10;;;;;;;;;;5095411;28;20106;-79
2022/06/25 14:16:19;;;;;;;0.10;0.10;;;;;;;;;;5091716;28;20031;-80
2022/06/25 14:18:45;;;;;;;0.10;0.10;;;;;;;;;;5098378;28;20032;-78
2022/06/25 14:21:11;;;;;;;0.10;0.10;;;;;;;;;;5090394;28;20059;-79
2022/06/25 14:23:37;;;;;;;0.10;0.10;;;;;;;;;;5092005;28;20104;-80
2022/06/25 14:26:03;;;;;;;0.10;0.10;;;;;;;;;;5097562;28;20047;-78
2022/06/25 14:28:30;;;;;;;0.10;0.10;;;;;;;;;;5094114;28;20020;-79
2022/06/25 14:30:56;;;;;;;0.10;0.10;;;;;;;;;;5093225;28;20024;-80
2022/06/25 14:33:22;;;;;;;0.10;0.10;;;;;;;;;;5088155;28;20034;-80
2022/06/25 14:44:04;;;;;;;0.10;0.10;;;;;;;;;;5088237;28;20097;-81
2022/06/25 14:46:30;;;;;;;0.10;0.10;;;;;;;;;;5088870;28;20099;-81
2022/06/25 14:48:56;;;;;;;0.10;0.10;;;;;;;;;;5089635;28;20108;-77
2022/06/25 14:51:25;;;;;;;0.10;0.10;;;;;;;;;;5089983;28;20024;-79
2022/06/25 14:53:51;;;;;;;0.10;0.10;;;;;;;;;;5090330;28;20028;-82
2022/06/25 14:56:17;;;;;;;0.10;0.10;;;;;;;;;;5093078;28;20052;-80
2022/06/25 14:58:44;;;;;;;0.10;0.10;;;;;;;;;;5094423;28;20464;-81
2022/06/25 15:01:10;;;;;;;0.10;0.10;;;;;;;;;;5094317;28;20392;-81
2022/06/25 15:03:36;;;;;;;0.10;0.10;;;;;;;;;;5093992;28;20039;-81
2022/06/25 15:06:02;;;;;;;0.10;0.10;;;;;;;;;;5094137;28;20027;-81